Time;durP1;ratioP1;P1;durP2;ratioP2;P2;SDS_P1;SDS_P2;PMS_P1;PMS_P2;Temp;Humidity;BMP_temperature;BMP_pressure;BME280_temperature;BME280_humidity;BME280_pressure;Samples;Min_cycle;Max_cycle;Signal;HPM_P1;HPM_P2
2022/05/11 00:01:29;;;;;;;11.65;6.15;;;;;;;;;;1761564;81;21040;-68
2022/05/11 00:03:56;;;;;;;13.70;6.15;;;;;;;;;;1756027;81;21586;-67
2022/05/11 00:06:22;;;;;;;11.28;5.37;;;;;;;;;;1753454;82;21013;-68
2022/05/11 00:08:49;;;;;;;9.85;5.75;;;;;;;;;;1751759;82;21081;-67
2022/05/11 00:11:15;;;;;;;10.18;5.85;;;;;;;;;;1744706;82;21082;-67
2022/05/11 00:13:41;;;;;;;10.28;5.53;;;;;;;;;;1726330;82;21583;-67
2022/05/11 00:16:07;;;;;;;9.00;5.22;;;;;;;;;;1691376;85;21078;-67
2022/05/11 00:18:34;;;;;;;9.73;4.70;;;;;;;;;;1691456;85;21079;-67
2022/05/11 00:21:00;;;;;;;8.40;4.67;;;;;;;;;;1703326;83;21552;-68
2022/05/11 00:23:26;;;;;;;8.00;4.70;;;;;;;;;;1719927;83;21083;-67
2022/05/11 00:25:53;;;;;;;8.63;4.83;;;;;;;;;;1691487;85;21437;-68
2022/05/11 00:28:19;;;;;;;9.15;4.58;;;;;;;;;;1691431;85;21011;-68
2022/05/11 00:30:45;;;;;;;9.20;4.70;;;;;;;;;;1691304;85;21654;-68
2022/05/11 00:33:13;;;;;;;9.90;5.50;;;;;;;;;;1691694;85;21079;-68
2022/05/11 00:35:39;;;;;;;11.38;5.37;;;;;;;;;;1691433;85;21523;-68
2022/05/11 00:38:05;;;;;;;11.53;5.40;;;;;;;;;;1691577;85;21795;-68
2022/05/11 00:40:31;;;;;;;10.95;5.40;;;;;;;;;;1693253;83;21134;-68
2022/05/11 00:42:58;;;;;;;9.38;4.58;;;;;;;;;;1696917;84;21031;-68
2022/05/11 00:45:24;;;;;;;12.88;5.75;;;;;;;;;;1696210;84;21061;-68
2022/05/11 00:47:58;;;;;;;10.98;5.08;;;;;;;;;;1692326;83;21017;-68
2022/05/11 00:50:29;;;;;;;10.43;4.92;;;;;;;;;;1697163;84;21018;-67
2022/05/11 00:52:56;;;;;;;9.20;5.15;;;;;;;;;;1668065;86;22136;-68
2022/05/11 00:55:24;;;;;;;10.98;5.25;;;;;;;;;;1696330;84;21110;-67
2022/05/11 00:57:52;;;;;;;12.37;5.05;;;;;;;;;;1697496;83;21051;-67
2022/05/11 01:00:18;;;;;;;9.10;5.15;;;;;;;;;;1696604;84;21615;-67
2022/05/11 01:05:14;;;;;;;8.45;4.65;;;;;;;;;;1635899;86;22167;-69
2022/05/11 01:07:40;;;;;;;9.30;5.03;;;;;;;;;;1637064;88;21046;-69
2022/05/11 01:10:07;;;;;;;11.08;5.67;;;;;;;;;;1636248;86;21032;-69
2022/05/11 01:12:35;;;;;;;15.55;6.08;;;;;;;;;;1635880;88;21037;-69
2022/05/11 01:15:04;;;;;;;10.70;5.40;;;;;;;;;;1650427;86;21081;-69
2022/05/11 01:17:29;;;;;;;10.55;5.53;;;;;;;;;;1650020;87;21108;-70
2022/05/11 01:19:56;;;;;;;9.65;5.80;;;;;;;;;;1645196;87;21109;-69
2022/05/11 01:22:32;;;;;;;11.57;5.92;;;;;;;;;;1644131;87;21134;-70
2022/05/11 01:24:59;;;;;;;8.93;4.65;;;;;;;;;;1644120;87;21011;-69
2022/05/11 01:27:27;;;;;;;11.45;5.30;;;;;;;;;;1644204;87;20995;-70
2022/05/11 01:29:54;;;;;;;8.53;4.90;;;;;;;;;;1643857;87;21089;-69
2022/05/11 01:32:20;;;;;;;7.72;4.95;;;;;;;;;;1644273;87;20999;-69
2022/05/11 01:34:47;;;;;;;8.45;4.75;;;;;;;;;;1644532;87;21026;-69
2022/05/11 01:37:13;;;;;;;8.98;4.62;;;;;;;;;;1644247;87;21011;-70
2022/05/11 01:39:39;;;;;;;8.30;4.65;;;;;;;;;;1644185;87;21031;-70
2022/05/11 01:42:05;;;;;;;7.75;4.80;;;;;;;;;;1644300;87;21030;-70
2022/05/11 01:44:31;;;;;;;7.92;4.45;;;;;;;;;;1644145;87;22047;-70
2022/05/11 01:46:58;;;;;;;9.80;4.97;;;;;;;;;;1644344;87;21049;-70
2022/05/11 01:49:27;;;;;;;7.22;4.10;;;;;;;;;;1646158;87;21081;-69
2022/05/11 01:51:53;;;;;;;8.73;4.67;;;;;;;;;;1650581;87;21500;-69
2022/05/11 01:54:20;;;;;;;8.60;5.03;;;;;;;;;;1650317;87;21053;-69
2022/05/11 01:56:46;;;;;;;7.60;4.60;;;;;;;;;;1650515;87;21048;-69
2022/05/11 01:59:12;;;;;;;8.58;4.95;;;;;;;;;;1649218;87;21023;-69
2022/05/11 02:01:40;;;;;;;9.53;4.70;;;;;;;;;;1649902;87;21053;-69
2022/05/11 02:07:49;;;;;;;10.58;4.87;;;;;;;;;;1640986;86;21232;-69
2022/05/11 02:09:17;;;;;;;8.08;4.58;;;;;;;;;;1634788;88;21051;-69
2022/05/11 02:11:44;;;;;;;8.63;4.70;;;;;;;;;;1667532;86;21000;-69
2022/05/11 02:14:10;;;;;;;7.72;4.75;;;;;;;;;;1667397;86;21032;-69
2022/05/11 02:16:37;;;;;;;10.13;5.15;;;;;;;;;;1667186;86;21068;-69
2022/05/11 02:19:03;;;;;;;8.18;4.85;;;;;;;;;;1667335;86;21040;-70
2022/05/11 02:21:30;;;;;;;10.05;4.72;;;;;;;;;;1666307;85;21617;-72
2022/05/11 02:23:57;;;;;;;10.35;5.12;;;;;;;;;;1665947;86;21593;-69
2022/05/11 02:26:23;;;;;;;9.05;4.95;;;;;;;;;;1666058;86;21082;-70
2022/05/11 02:28:50;;;;;;;9.95;5.25;;;;;;;;;;1666768;86;21076;-69
2022/05/11 02:31:16;;;;;;;7.95;4.70;;;;;;;;;;1667330;86;21305;-69
2022/05/11 02:33:42;;;;;;;8.73;4.95;;;;;;;;;;1667312;86;21516;-69
2022/05/11 02:36:08;;;;;;;8.33;5.33;;;;;;;;;;1667305;86;21084;-69
2022/05/11 02:38:35;;;;;;;8.40;4.42;;;;;;;;;;1666428;86;21086;-70
2022/05/11 02:41:01;;;;;;;10.45;5.35;;;;;;;;;;1665836;86;21051;-70
2022/05/11 02:43:27;;;;;;;10.53;4.90;;;;;;;;;;1665647;86;21565;-70
2022/05/11 02:45:54;;;;;;;9.50;4.50;;;;;;;;;;1665894;86;21129;-70
2022/05/11 02:48:22;;;;;;;9.13;4.83;;;;;;;;;;1666638;86;21029;-70
2022/05/11 02:50:49;;;;;;;8.63;4.00;;;;;;;;;;1666937;86;21118;-70
2022/05/11 02:53:15;;;;;;;8.05;5.05;;;;;;;;;;1665907;86;21070;-70
2022/05/11 02:55:43;;;;;;;11.03;5.87;;;;;;;;;;1665751;86;21529;-70
2022/05/11 02:58:09;;;;;;;11.45;6.00;;;;;;;;;;1666065;86;21059;-69
2022/05/11 03:00:37;;;;;;;16.90;6.50;;;;;;;;;;1665815;86;21222;-69
2022/05/11 03:03:03;;;;;;;10.48;5.97;;;;;;;;;;1667466;86;21187;-69
2022/05/11 03:05:30;;;;;;;11.30;6.33;;;;;;;;;;1667087;85;21156;-70
2022/05/11 03:07:57;;;;;;;12.65;5.70;;;;;;;;;;1667167;86;21064;-69
2022/05/11 03:10:24;;;;;;;11.73;5.55;;;;;;;;;;1667095;86;21124;-69
2022/05/11 03:12:51;;;;;;;12.18;5.33;;;;;;;;;;1640302;87;21070;-69
2022/05/11 03:15:17;;;;;;;13.20;5.45;;;;;;;;;;1640158;87;21097;-69
2022/05/11 03:17:43;;;;;;;11.43;5.08;;;;;;;;;;1640231;87;21139;-70
2022/05/11 03:20:10;;;;;;;8.80;4.55;;;;;;;;;;1656787;86;21098;-71
2022/05/11 03:22:37;;;;;;;8.93;4.97;;;;;;;;;;1666077;86;21786;-69
2022/05/11 03:25:04;;;;;;;9.23;4.90;;;;;;;;;;1665917;86;21070;-69
2022/05/11 03:27:31;;;;;;;10.30;4.95;;;;;;;;;;1666060;86;21518;-69
2022/05/11 03:29:57;;;;;;;10.58;4.92;;;;;;;;;;1665789;86;21085;-70
2022/05/11 03:35:12;;;;;;;9.38;5.70;;;;;;;;;;1666093;86;21089;-69
2022/05/11 03:37:38;;;;;;;9.03;5.62;;;;;;;;;;1665862;86;21134;-68
2022/05/11 03:40:08;;;;;;;9.93;5.28;;;;;;;;;;1666807;86;21559;-68
2022/05/11 03:42:35;;;;;;;9.73;5.37;;;;;;;;;;1667312;86;21032;-68
2022/05/11 03:45:12;;;;;;;11.10;5.15;;;;;;;;;;1667345;86;21064;-68
2022/05/11 03:47:39;;;;;;;7.83;4.87;;;;;;;;;;1667291;85;21041;-68
2022/05/11 03:50:06;;;;;;;11.35;5.67;;;;;;;;;;1672463;84;21053;-68
2022/05/11 03:52:34;;;;;;;8.95;5.70;;;;;;;;;;1608404;89;21114;-68
2022/05/11 03:55:00;;;;;;;9.60;4.72;;;;;;;;;;1609292;89;21074;-69
2022/05/11 03:57:26;;;;;;;10.95;5.17;;;;;;;;;;1608429;89;21602;-69
2022/05/11 03:59:52;;;;;;;8.08;4.45;;;;;;;;;;1608220;89;21073;-69
2022/05/11 04:02:18;;;;;;;9.43;5.35;;;;;;;;;;1610094;89;21539;-69
2022/05/11 04:04:44;;;;;;;7.17;4.55;;;;;;;;;;1615592;88;21149;-69
2022/05/11 04:07:10;;;;;;;7.95;4.97;;;;;;;;;;1651621;87;21009;-69
2022/05/11 04:09:36;;;;;;;6.60;4.40;;;;;;;;;;1618823;89;21627;-70
2022/05/11 04:12:04;;;;;;;8.18;4.10;;;;;;;;;;1618911;89;21520;-70
2022/05/11 04:14:30;;;;;;;6.50;3.65;;;;;;;;;;1648232;87;21512;-70
2022/05/11 04:16:59;;;;;;;4.90;2.90;;;;;;;;;;1648053;87;21108;-69
2022/05/11 04:19:25;;;;;;;4.50;3.10;;;;;;;;;;1648038;87;21104;-70
2022/05/11 04:21:52;;;;;;;5.70;3.10;;;;;;;;;;1648039;87;21147;-69
2022/05/11 04:24:18;;;;;;;5.92;3.05;;;;;;;;;;1647953;87;21108;-69
2022/05/11 04:26:44;;;;;;;5.20;3.00;;;;;;;;;;1648133;87;21636;-69
2022/05/11 04:29:10;;;;;;;4.65;2.90;;;;;;;;;;1670442;86;21084;-69
2022/05/11 04:31:37;;;;;;;6.42;3.33;;;;;;;;;;1670558;86;21091;-68
2022/05/11 04:34:05;;;;;;;11.85;3.58;;;;;;;;;;1646523;86;21028;-70
2022/05/11 04:36:33;;;;;;;7.50;3.27;;;;;;;;;;1646901;87;21105;-70
2022/05/11 04:38:59;;;;;;;6.28;3.30;;;;;;;;;;1647624;87;21587;-70
2022/05/11 04:41:25;;;;;;;10.25;3.20;;;;;;;;;;1638142;87;21112;-70
2022/05/11 04:43:52;;;;;;;4.67;2.95;;;;;;;;;;1678837;85;21032;-70
2022/05/11 04:46:18;;;;;;;6.10;3.17;;;;;;;;;;1680599;85;21068;-70
2022/05/11 04:48:46;;;;;;;6.60;3.10;;;;;;;;;;1680499;85;21052;-70
2022/05/11 04:51:12;;;;;;;5.78;3.10;;;;;;;;;;1679855;85;21095;-70
2022/05/11 04:53:38;;;;;;;5.42;3.05;;;;;;;;;;1677664;85;21518;-70
2022/05/11 04:56:04;;;;;;;5.08;2.85;;;;;;;;;;1677997;84;21117;-70
2022/05/11 04:58:30;;;;;;;8.73;3.08;;;;;;;;;;1682702;84;21068;-70
2022/05/11 05:00:56;;;;;;;6.53;2.92;;;;;;;;;;1685434;84;21305;-69
2022/05/11 05:03:22;;;;;;;6.22;3.00;;;;;;;;;;1626582;87;21128;-69
2022/05/11 05:05:48;;;;;;;4.28;2.87;;;;;;;;;;1628279;87;21548;-69
2022/05/11 05:08:15;;;;;;;4.47;2.87;;;;;;;;;;1633262;88;21033;-70
2022/05/11 05:10:41;;;;;;;4.42;2.95;;;;;;;;;;1656184;86;21035;-70
2022/05/11 05:13:10;;;;;;;4.97;3.15;;;;;;;;;;1666593;86;21524;-70
2022/05/11 05:15:37;;;;;;;4.40;3.12;;;;;;;;;;1678996;84;21548;-70
2022/05/11 05:18:05;;;;;;;18.07;3.33;;;;;;;;;;1692018;84;21005;-70
2022/05/11 05:20:33;;;;;;;5.15;3.05;;;;;;;;;;1695534;84;21084;-70
2022/05/11 05:23:00;;;;;;;5.00;2.95;;;;;;;;;;1693892;84;21024;-70
2022/05/11 05:25:26;;;;;;;5.20;3.25;;;;;;;;;;1675578;84;21138;-69
2022/05/11 05:27:54;;;;;;;6.28;2.60;;;;;;;;;;1667677;84;21125;-70
2022/05/11 05:33:04;;;;;;;5.97;3.33;;;;;;;;;;1668254;84;21061;-70
2022/05/11 05:35:32;;;;;;;5.58;2.75;;;;;;;;;;1667371;84;21129;-71
2022/05/11 05:37:58;;;;;;;5.85;2.80;;;;;;;;;;1694955;84;22039;-70
2022/05/11 05:40:24;;;;;;;5.20;2.87;;;;;;;;;;1695689;84;21135;-70
2022/05/11 05:42:50;;;;;;;5.85;2.70;;;;;;;;;;1687220;84;21066;-71
2022/05/11 05:45:16;;;;;;;4.60;2.30;;;;;;;;;;1668410;84;21545;-70
2022/05/11 05:47:42;;;;;;;6.28;2.37;;;;;;;;;;1692451;84;21484;-73
2022/05/11 05:50:09;;;;;;;6.92;2.50;;;;;;;;;;1696333;84;21610;-73
2022/05/11 05:52:35;;;;;;;5.03;2.60;;;;;;;;;;1690162;84;21550;-72
2022/05/11 05:55:01;;;;;;;5.28;2.58;;;;;;;;;;1685473;84;21061;-73
2022/05/11 05:57:27;;;;;;;3.87;2.27;;;;;;;;;;1668767;84;21058;-73
2022/05/11 05:59:53;;;;;;;6.62;2.90;;;;;;;;;;1674335;84;21557;-71
2022/05/11 06:02:22;;;;;;;4.55;2.30;;;;;;;;;;1688976;84;21036;-68
2022/05/11 06:04:49;;;;;;;4.10;2.52;;;;;;;;;;1695519;83;21167;-70
2022/05/11 06:07:17;;;;;;;4.30;2.58;;;;;;;;;;1671961;84;21137;-72
2022/05/11 06:09:43;;;;;;;5.12;2.30;;;;;;;;;;1670932;84;21069;-70
2022/05/11 06:12:12;;;;;;;4.67;2.50;;;;;;;;;;1684866;84;21062;-71
2022/05/11 06:14:39;;;;;;;4.47;2.12;;;;;;;;;;1666265;86;21124;-70
2022/05/11 06:17:12;;;;;;;4.60;2.40;;;;;;;;;;1668279;86;21087;-71
2022/05/11 06:19:42;;;;;;;;;;;;;;;;;;1642925;87;21104;-71
2022/05/11 06:22:06;;;;;;;3.87;2.30;;;;;;;;;;1640244;87;20127;-70
2022/05/11 06:24:33;;;;;;;4.67;2.17;;;;;;;;;;1664719;85;21001;-69
2022/05/11 06:26:59;;;;;;;2.83;2.10;;;;;;;;;;1677208;85;21089;-70
2022/05/11 06:29:26;;;;;;;4.28;2.20;;;;;;;;;;1676725;85;21065;-70
2022/05/11 06:31:52;;;;;;;4.72;2.30;;;;;;;;;;1681504;85;21045;-69
2022/05/11 06:34:19;;;;;;;4.62;2.30;;;;;;;;;;1670124;85;21067;-68
2022/05/11 06:36:45;;;;;;;2.90;1.98;;;;;;;;;;1660275;86;21203;-69
2022/05/11 06:39:11;;;;;;;3.90;2.10;;;;;;;;;;1646490;86;21540;-69
2022/05/11 06:41:38;;;;;;;7.92;2.37;;;;;;;;;;1632286;88;21120;-68
2022/05/11 06:44:05;;;;;;;2.42;1.80;;;;;;;;;;1638995;87;21104;-70
2022/05/11 06:46:32;;;;;;;3.05;2.08;;;;;;;;;;1638831;87;21592;-67
2022/05/11 06:48:58;;;;;;;3.98;2.22;;;;;;;;;;1638833;87;21092;-70
2022/05/11 06:51:24;;;;;;;3.67;2.30;;;;;;;;;;1667855;85;21044;-70
2022/05/11 06:59:24;;;;;;;3.77;2.10;;;;;;;;;;1676859;85;21549;-70
2022/05/11 07:01:57;;;;;;;3.70;2.33;;;;;;;;;;1681428;85;21077;-70
2022/05/11 07:04:25;;;;;;;3.40;2.02;;;;;;;;;;1681631;84;21635;-70
2022/05/11 07:06:54;;;;;;;3.62;2.20;;;;;;;;;;1683527;85;21548;-70
2022/05/11 07:09:23;;;;;;;3.92;2.17;;;;;;;;;;1684351;85;21120;-71
2022/05/11 07:14:35;;;;;;;4.87;2.30;;;;;;;;;;1651875;86;21534;-70
2022/05/11 07:17:01;;;;;;;2.95;2.08;;;;;;;;;;1657515;86;21149;-71
2022/05/11 07:19:28;;;;;;;3.80;2.37;;;;;;;;;;1651413;87;21068;-70
2022/05/11 07:21:54;;;;;;;5.05;2.20;;;;;;;;;;1650283;87;21061;-69
2022/05/11 07:24:21;;;;;;;3.60;2.00;;;;;;;;;;1650253;87;21050;-69
2022/05/11 07:26:47;;;;;;;3.77;2.10;;;;;;;;;;1649914;87;21089;-69
2022/05/11 07:29:14;;;;;;;4.75;2.20;;;;;;;;;;1652061;87;21085;-69
2022/05/11 07:31:41;;;;;;;3.33;2.20;;;;;;;;;;1651762;87;21092;-69
2022/05/11 07:34:07;;;;;;;2.92;2.02;;;;;;;;;;1652126;86;21030;-69
2022/05/11 07:36:35;;;;;;;5.60;2.17;;;;;;;;;;1650408;86;21042;-70
2022/05/11 07:39:01;;;;;;;4.42;2.20;;;;;;;;;;1648282;87;21140;-70
2022/05/11 07:41:28;;;;;;;3.05;1.92;;;;;;;;;;1629188;86;21050;-70
2022/05/11 07:43:55;;;;;;;6.22;2.00;;;;;;;;;;1662569;86;21587;-70
2022/05/11 07:46:22;;;;;;;4.92;2.20;;;;;;;;;;1661196;86;21046;-70
2022/05/11 07:48:48;;;;;;;3.70;1.90;;;;;;;;;;1662948;86;21046;-70
2022/05/11 07:51:14;;;;;;;4.37;2.17;;;;;;;;;;1663080;86;21081;-70
2022/05/11 07:53:40;;;;;;;24.35;3.58;;;;;;;;;;1660745;86;21481;-70
2022/05/11 08:01:36;;;;;;;2.80;2.10;;;;;;;;;;1655486;86;21130;-68
2022/05/11 08:04:02;;;;;;;4.28;2.50;;;;;;;;;;1651178;86;21145;-69
2022/05/11 08:06:28;;;;;;;5.60;2.80;;;;;;;;;;1651503;85;21632;-69
2022/05/11 08:08:54;;;;;;;5.70;2.47;;;;;;;;;;1651507;86;21529;-70
2022/05/11 08:11:20;;;;;;;4.15;2.55;;;;;;;;;;1651695;86;21101;-69
2022/05/11 08:13:46;;;;;;;5.00;2.60;;;;;;;;;;1651462;87;21116;-70
2022/05/11 08:16:12;;;;;;;4.78;2.60;;;;;;;;;;1651407;87;21069;-69
2022/05/11 08:18:39;;;;;;;5.28;2.60;;;;;;;;;;1647189;86;21502;-69
2022/05/11 08:21:05;;;;;;;4.33;2.50;;;;;;;;;;1655557;86;21616;-69
2022/05/11 08:23:33;;;;;;;4.62;2.83;;;;;;;;;;1654354;86;21070;-69
2022/05/11 08:26:01;;;;;;;4.12;2.37;;;;;;;;;;1650295;87;22151;-69
2022/05/11 08:28:27;;;;;;;3.85;2.30;;;;;;;;;;1650110;87;21584;-69
2022/05/11 08:33:38;;;;;;;3.98;2.72;;;;;;;;;;1651401;85;21121;-68
2022/05/11 08:36:06;;;;;;;5.55;3.00;;;;;;;;;;1651485;87;21119;-68
2022/05/11 08:38:39;;;;;;;6.03;3.30;;;;;;;;;;1649127;87;21628;-68
2022/05/11 08:41:06;;;;;;;6.58;3.87;;;;;;;;;;1650936;85;21101;-68
2022/05/11 08:43:36;;;;;;;5.15;3.47;;;;;;;;;;1649861;87;21117;-68
2022/05/11 08:46:03;;;;;;;7.65;3.67;;;;;;;;;;1650002;87;21105;-69
2022/05/11 08:48:38;;;;;;;6.75;4.17;;;;;;;;;;1649949;87;21057;-69
2022/05/11 08:51:06;;;;;;;6.45;3.65;;;;;;;;;;1649759;87;21053;-69
2022/05/11 08:53:37;;;;;;;6.70;3.20;;;;;;;;;;1650030;87;21093;-71
2022/05/11 08:56:06;;;;;;;7.95;3.92;;;;;;;;;;1649796;87;21092;-69
2022/05/11 08:58:34;;;;;;;8.58;5.12;;;;;;;;;;1650258;87;21560;-70
2022/05/11 09:01:02;;;;;;;7.33;4.12;;;;;;;;;;1649735;86;21152;-71
2022/05/11 09:03:41;;;;;;;10.50;5.30;;;;;;;;;;1653582;86;21161;-70
2022/05/11 09:06:09;;;;;;;10.80;5.80;;;;;;;;;;1660386;85;21421;-70
2022/05/11 09:08:37;;;;;;;10.00;5.55;;;;;;;;;;1659153;86;21068;-68
2022/05/11 09:11:06;;;;;;;10.03;5.40;;;;;;;;;;1664548;86;21540;-69
2022/05/11 09:13:35;;;;;;;7.92;4.47;;;;;;;;;;1655357;87;21077;-70
2022/05/11 09:16:02;;;;;;;9.23;4.37;;;;;;;;;;1654581;86;21084;-70
2022/05/11 09:18:33;;;;;;;10.38;4.75;;;;;;;;;;1654225;86;21065;-69
2022/05/11 09:21:00;;;;;;;10.60;4.92;;;;;;;;;;1655485;87;21490;-71
2022/05/11 09:23:28;;;;;;;10.90;4.58;;;;;;;;;;1658584;86;21109;-71
2022/05/11 09:25:56;;;;;;;8.35;4.55;;;;;;;;;;1655318;86;21102;-69
2022/05/11 09:28:23;;;;;;;7.95;5.22;;;;;;;;;;1665279;86;21165;-70
2022/05/11 09:30:51;;;;;;;10.30;5.65;;;;;;;;;;1635793;86;21557;-69
2022/05/11 09:33:20;;;;;;;9.03;4.90;;;;;;;;;;1638575;87;21567;-71
2022/05/11 09:35:46;;;;;;;9.70;5.60;;;;;;;;;;1640637;87;21116;-70
2022/05/11 09:38:20;;;;;;;10.78;5.12;;;;;;;;;;1648439;87;21608;-70
2022/05/11 09:40:49;;;;;;;12.60;5.35;;;;;;;;;;1654675;87;21607;-70
2022/05/11 09:43:29;;;;;;;12.53;5.05;;;;;;;;;;1650306;86;21050;-70
2022/05/11 09:45:55;;;;;;;6.87;4.35;;;;;;;;;;1668644;85;21026;-69
2022/05/11 09:48:23;;;;;;;8.05;4.65;;;;;;;;;;1667026;86;20994;-70
2022/05/11 09:50:53;;;;;;;8.48;4.47;;;;;;;;;;1668351;86;21034;-68
2022/05/11 09:53:23;;;;;;;7.97;4.35;;;;;;;;;;1664325;85;21085;-68
2022/05/11 09:55:51;;;;;;;9.30;4.25;;;;;;;;;;1661389;86;21081;-68
2022/05/11 09:58:28;;;;;;;8.70;5.15;;;;;;;;;;1660545;86;21142;-69
2022/05/11 10:00:56;;;;;;;9.18;5.17;;;;;;;;;;1657576;86;21578;-70
2022/05/11 10:03:24;;;;;;;8.83;4.80;;;;;;;;;;1648846;86;21090;-69
2022/05/11 10:05:51;;;;;;;8.23;4.80;;;;;;;;;;1659629;85;21086;-69
2022/05/11 10:08:21;;;;;;;9.05;4.53;;;;;;;;;;1679243;85;21057;-69
2022/05/11 10:10:49;;;;;;;8.98;5.40;;;;;;;;;;1672399;85;21592;-68
2022/05/11 10:13:24;;;;;;;10.93;5.10;;;;;;;;;;1670184;86;21141;-70
2022/05/11 10:21:50;;;;;;;11.08;5.17;;;;;;;;;;1659951;84;21052;-69
2022/05/11 10:24:24;;;;;;;9.45;5.00;;;;;;;;;;1689237;84;21091;-69
2022/05/11 10:27:05;;;;;;;9.30;4.90;;;;;;;;;;1694411;84;21580;-70
2022/05/11 10:29:49;;;;;;;7.50;4.60;;;;;;;;;;1670427;86;21173;-70
2022/05/11 10:32:17;;;;;;;7.60;4.40;;;;;;;;;;1673858;85;21088;-69
2022/05/11 10:34:47;;;;;;;11.03;4.58;;;;;;;;;;1668065;84;21601;-71
2022/05/11 10:37:15;;;;;;;9.63;4.33;;;;;;;;;;1669126;84;21374;-70
2022/05/11 10:40:00;;;;;;;5.80;3.72;;;;;;;;;;1668391;86;21094;-69
2022/05/11 10:42:30;;;;;;;6.53;3.75;;;;;;;;;;1669449;86;21039;-69
2022/05/11 10:45:02;;;;;;;4.83;3.00;;;;;;;;;;1669634;86;21046;-70
2022/05/11 10:47:48;;;;;;;4.75;2.87;;;;;;;;;;1668294;86;21086;-69
2022/05/11 10:50:16;;;;;;;5.47;2.75;;;;;;;;;;1670313;86;21070;-72
2022/05/11 10:52:47;;;;;;;4.30;2.60;;;;;;;;;;1670798;86;21110;-70
2022/05/11 10:55:18;;;;;;;5.75;2.90;;;;;;;;;;1670848;86;22120;-70
2022/05/11 10:58:03;;;;;;;5.55;2.98;;;;;;;;;;1666419;85;21041;-68
2022/05/11 11:00:31;;;;;;;5.58;3.27;;;;;;;;;;1687124;85;21061;-69
2022/05/11 11:03:08;;;;;;;6.42;3.00;;;;;;;;;;1676807;85;21702;-69
2022/05/11 11:05:39;;;;;;;4.15;3.00;;;;;;;;;;1677096;85;21058;-69
2022/05/11 11:08:22;;;;;;;8.10;2.95;;;;;;;;;;1662376;86;21545;-69
2022/05/11 11:10:49;;;;;;;5.75;2.95;;;;;;;;;;1635731;87;21093;-69
2022/05/11 11:13:24;;;;;;;5.03;2.65;;;;;;;;;;1635536;88;21149;-68
2022/05/11 11:15:51;;;;;;;4.12;2.70;;;;;;;;;;1672710;85;21068;-69
2022/05/11 11:18:19;;;;;;;3.75;2.25;;;;;;;;;;1666279;85;21082;-69
2022/05/11 11:20:46;;;;;;;6.05;2.40;;;;;;;;;;1662382;86;21133;-70
2022/05/11 11:23:17;;;;;;;3.37;2.05;;;;;;;;;;1666016;86;21073;-69
2022/05/11 11:25:53;;;;;;;5.22;2.25;;;;;;;;;;1666700;85;21084;-70
2022/05/11 11:28:21;;;;;;;3.05;2.40;;;;;;;;;;1667445;86;21141;-69
2022/05/11 11:31:03;;;;;;;4.53;2.60;;;;;;;;;;1681662;85;21091;-68
2022/05/11 11:33:34;;;;;;;3.17;2.00;;;;;;;;;;1640662;87;21101;-69
2022/05/11 11:36:02;;;;;;;3.02;2.30;;;;;;;;;;1640537;87;21129;-70
2022/05/11 11:38:42;;;;;;;4.70;2.85;;;;;;;;;;1660628;86;21089;-69
2022/05/11 11:41:16;;;;;;;5.67;2.65;;;;;;;;;;1667265;86;21082;-69
2022/05/11 11:43:47;;;;;;;5.83;2.70;;;;;;;;;;1682818;84;21048;-69
2022/05/11 11:46:27;;;;;;;5.45;2.90;;;;;;;;;;1677554;84;21118;-70
2022/05/11 11:49:12;;;;;;;4.03;2.62;;;;;;;;;;1666312;86;21217;-69
2022/05/11 11:51:56;;;;;;;5.47;2.72;;;;;;;;;;1666226;86;21142;-68
2022/05/11 11:54:43;;;;;;;4.70;2.85;;;;;;;;;;1667618;86;21553;-69
2022/05/11 11:58:46;;;;;;;5.83;3.35;;;;;;;;;;1802841;78;22617;-70
2022/05/11 12:01:13;;;;;;;8.58;3.37;;;;;;;;;;1762379;80;20985;-70
2022/05/11 12:03:53;;;;;;;5.58;3.02;;;;;;;;;;1746864;81;21075;-70
2022/05/11 12:17:32;;;;;;;5.60;2.87;;;;;;;;;;1723558;83;21048;-68
2022/05/11 12:19:59;;;;;;;5.03;2.83;;;;;;;;;;1723742;83;21080;-70
2022/05/11 12:22:26;;;;;;;6.72;3.17;;;;;;;;;;1724800;83;21517;-69
2022/05/11 12:25:04;;;;;;;3.47;2.20;;;;;;;;;;1752769;81;21011;-70
2022/05/11 12:27:31;;;;;;;4.25;2.80;;;;;;;;;;1736674;81;21597;-69
2022/05/11 12:30:02;;;;;;;3.72;2.60;;;;;;;;;;1761225;81;21004;-69
2022/05/11 12:32:33;;;;;;;6.65;3.12;;;;;;;;;;1763732;81;21216;-69
2022/05/11 12:35:21;;;;;;;6.75;3.10;;;;;;;;;;1741234;81;21015;-69
2022/05/11 12:37:44;;;;;;;4.15;2.50;;;;;;;;;;1763635;81;21538;-69
2022/05/11 12:40:15;;;;;;;5.40;3.15;;;;;;;;;;1737126;81;21078;-69
2022/05/11 12:42:49;;;;;;;3.85;2.60;;;;;;;;;;1764747;81;21067;-69
2022/05/11 12:45:14;;;;;;;;;;;;;;;;;;1764999;81;21027;-69
2022/05/11 12:47:42;;;;;;;4.45;2.70;;;;;;;;;;1764771;81;20411;-70
2022/05/11 12:50:10;;;;;;;4.15;2.50;;;;;;;;;;1764295;81;21047;-69
2022/05/11 12:52:37;;;;;;;3.70;2.40;;;;;;;;;;1764674;81;21020;-69
2022/05/11 12:55:04;;;;;;;3.40;2.33;;;;;;;;;;1732496;81;21563;-69
2022/05/11 12:57:36;;;;;;;3.50;2.40;;;;;;;;;;1725178;83;21516;-70
2022/05/11 13:00:04;;;;;;;3.15;2.35;;;;;;;;;;1736138;81;21561;-70
2022/05/11 13:02:34;;;;;;;3.58;2.00;;;;;;;;;;1733340;81;21084;-69
2022/05/11 13:05:00;;;;;;;4.50;1.98;;;;;;;;;;1720146;83;21079;-71
2022/05/11 13:07:28;;;;;;;3.85;2.35;;;;;;;;;;1720363;83;21095;-69
2022/05/11 13:09:56;;;;;;;5.10;2.22;;;;;;;;;;1719767;83;21017;-69
2022/05/11 13:12:22;;;;;;;2.45;1.85;;;;;;;;;;1719994;83;21524;-69
2022/05/11 13:14:51;;;;;;;4.30;2.37;;;;;;;;;;1719821;83;21115;-69
2022/05/11 13:17:19;;;;;;;5.47;2.37;;;;;;;;;;1719996;81;21029;-68
2022/05/11 13:19:51;;;;;;;3.25;2.00;;;;;;;;;;1722034;81;21571;-68
2022/05/11 13:22:15;;;;;;;3.37;2.52;;;;;;;;;;1719312;83;21024;-70
2022/05/11 13:24:45;;;;;;;3.65;2.20;;;;;;;;;;1713074;81;20997;-69
2022/05/11 13:27:32;;;;;;;3.70;2.30;;;;;;;;;;1758992;81;21051;-69
2022/05/11 13:30:03;;;;;;;3.62;2.02;;;;;;;;;;1759187;81;21058;-69
2022/05/11 13:32:31;;;;;;;4.10;2.40;;;;;;;;;;1759195;81;21024;-69
2022/05/11 13:35:13;;;;;;;3.77;2.10;;;;;;;;;;1748365;81;21068;-69
2022/05/11 13:37:40;;;;;;;2.90;2.20;;;;;;;;;;1720119;83;21065;-69
2022/05/11 13:40:07;;;;;;;5.22;2.20;;;;;;;;;;1720080;83;21028;-70
2022/05/11 13:42:33;;;;;;;3.72;2.00;;;;;;;;;;1720049;83;21492;-70
2022/05/11 13:45:04;;;;;;;4.00;2.00;;;;;;;;;;1721170;81;20993;-70
2022/05/11 13:50:17;;;;;;;4.40;2.20;;;;;;;;;;1720075;83;20997;-69
2022/05/11 13:52:51;;;;;;;5.83;2.10;;;;;;;;;;1717302;83;21354;-69
2022/05/11 13:55:22;;;;;;;3.87;1.90;;;;;;;;;;1720691;81;21480;-70
2022/05/11 13:57:48;;;;;;;4.65;2.30;;;;;;;;;;1719720;83;21114;-70
2022/05/11 14:00:15;;;;;;;4.12;2.12;;;;;;;;;;1721567;81;21020;-69
2022/05/11 14:02:43;;;;;;;4.20;2.10;;;;;;;;;;1720307;82;20992;-70
2022/05/11 14:05:10;;;;;;;3.27;2.00;;;;;;;;;;1713118;81;20993;-70
2022/05/11 14:07:36;;;;;;;3.27;2.10;;;;;;;;;;1723735;81;21016;-70
2022/05/11 14:10:03;;;;;;;3.87;1.85;;;;;;;;;;1747957;81;21072;-69
2022/05/11 14:12:29;;;;;;;2.58;1.90;;;;;;;;;;1743403;82;21528;-70
2022/05/11 14:14:55;;;;;;;3.08;2.00;;;;;;;;;;1731007;81;21731;-70
2022/05/11 14:17:24;;;;;;;3.50;1.95;;;;;;;;;;1732356;82;21104;-70
2022/05/11 14:19:51;;;;;;;3.77;2.20;;;;;;;;;;1717933;83;21052;-70
2022/05/11 14:22:17;;;;;;;3.27;1.90;;;;;;;;;;1717670;83;21057;-70
2022/05/11 14:24:43;;;;;;;2.83;1.85;;;;;;;;;;1724791;81;21039;-70
2022/05/11 14:27:09;;;;;;;10.88;2.92;;;;;;;;;;1725856;83;21027;-70
2022/05/11 14:29:37;;;;;;;2.55;1.80;;;;;;;;;;1691827;84;21511;-69
2022/05/11 14:32:07;;;;;;;2.77;1.72;;;;;;;;;;1684445;84;20997;-69
2022/05/11 14:34:33;;;;;;;2.98;1.90;;;;;;;;;;1669646;85;21691;-69
2022/05/11 14:36:59;;;;;;;1.82;1.60;;;;;;;;;;1663992;86;21070;-70
2022/05/11 14:39:26;;;;;;;2.37;1.77;;;;;;;;;;1675247;86;21354;-70
2022/05/11 14:41:52;;;;;;;1.70;1.50;;;;;;;;;;1738429;82;21000;-70
2022/05/11 14:44:20;;;;;;;1.95;1.60;;;;;;;;;;1738334;82;21066;-70
2022/05/11 14:46:48;;;;;;;2.85;1.85;;;;;;;;;;1738386;82;21142;-69
2022/05/11 14:49:15;;;;;;;2.02;1.60;;;;;;;;;;1738564;82;20997;-69
2022/05/11 14:51:42;;;;;;;3.67;1.80;;;;;;;;;;1719956;81;21051;-69
2022/05/11 14:54:09;;;;;;;2.27;1.65;;;;;;;;;;1724531;81;21054;-70
2022/05/11 14:56:36;;;;;;;3.00;1.75;;;;;;;;;;1733373;81;20992;-69
2022/05/11 15:01:55;;;;;;;1.87;1.50;;;;;;;;;;1723556;82;21528;-70
2022/05/11 15:04:24;;;;;;;3.17;1.80;;;;;;;;;;1721605;82;21036;-69
2022/05/11 15:06:50;;;;;;;3.05;1.80;;;;;;;;;;1734628;81;21022;-69
2022/05/11 15:09:16;;;;;;;4.67;2.17;;;;;;;;;;1740481;81;21051;-69
2022/05/11 15:14:26;;;;;;;2.72;1.70;;;;;;;;;;1743581;81;21507;-69
2022/05/11 15:16:53;;;;;;;2.58;1.60;;;;;;;;;;1758787;81;21108;-68
2022/05/11 15:19:19;;;;;;;3.00;1.65;;;;;;;;;;1759076;81;20961;-68
2022/05/11 15:21:47;;;;;;;4.42;1.87;;;;;;;;;;1758639;81;21019;-68
2022/05/11 15:24:13;;;;;;;2.58;1.80;;;;;;;;;;1758899;81;21031;-69
2022/05/11 15:26:40;;;;;;;3.27;1.82;;;;;;;;;;1758827;81;20992;-69
2022/05/11 15:29:06;;;;;;;5.33;1.70;;;;;;;;;;1731344;81;21055;-69
2022/05/11 15:31:32;;;;;;;3.08;1.92;;;;;;;;;;1758746;81;21098;-68
2022/05/11 15:33:59;;;;;;;4.05;1.80;;;;;;;;;;1759092;81;21012;-67
2022/05/11 15:36:25;;;;;;;2.98;1.80;;;;;;;;;;1758463;81;21503;-68
2022/05/11 15:38:51;;;;;;;2.20;1.70;;;;;;;;;;1758592;81;21016;-68
2022/05/11 15:41:18;;;;;;;5.12;1.82;;;;;;;;;;1758643;81;21047;-68